sensor_id;sensor_type;location;lat;lon;timestamp;P1;durP1;ratioP1;P2;durP2;ratioP2
11588;SDS011;5850;51.360;12.362;2023-07-09T00:02:22;8.00;;;5.97;;
11588;SDS011;5850;51.360;12.362;2023-07-09T00:04:52;7.50;;;5.70;;
11588;SDS011;5850;51.360;12.362;2023-07-09T00:09:53;7.53;;;6.73;;
11588;SDS011;5850;51.360;12.362;2023-07-09T00:12:22;6.50;;;5.53;;
11588;SDS011;5850;51.360;12.362;2023-07-09T00:14:51;6.20;;;5.60;;
11588;SDS011;5850;51.360;12.362;2023-07-09T00:17:31;8.73;;;5.77;;
11588;SDS011;5850;51.360;12.362;2023-07-09T00:20:01;7.43;;;6.10;;
11588;SDS011;5850;51.360;12.362;2023-07-09T00:22:37;6.43;;;5.73;;
11588;SDS011;5850;51.360;12.362;2023-07-09T00:25:07;7.73;;;5.60;;
11588;SDS011;5850;51.360;12.362;2023-07-09T00:27:42;6.90;;;6.20;;
11588;SDS011;5850;51.360;12.362;2023-07-09T00:30:18;6.13;;;5.53;;
11588;SDS011;5850;51.360;12.362;2023-07-09T00:32:49;5.97;;;5.37;;
11588;SDS011;5850;51.360;12.362;2023-07-09T00:35:19;6.43;;;5.83;;
11588;SDS011;5850;51.360;12.362;2023-07-09T00:37:47;8.40;;;5.83;;
11588;SDS011;5850;51.360;12.362;2023-07-09T00:40:19;7.00;;;5.73;;
11588;SDS011;5850;51.360;12.362;2023-07-09T00:42:52;8.27;;;6.20;;
11588;SDS011;5850;51.360;12.362;2023-07-09T00:45:23;6.17;;;5.50;;
11588;SDS011;5850;51.360;12.362;2023-07-09T00:47:54;7.70;;;5.60;;
11588;SDS011;5850;51.360;12.362;2023-07-09T00:50:31;5.93;;;5.33;;
11588;SDS011;5850;51.360;12.362;2023-07-09T00:53:13;6.27;;;5.67;;
11588;SDS011;5850;51.360;12.362;2023-07-09T00:56:03;8.10;;;5.77;;
11588;SDS011;5850;51.360;12.362;2023-07-09T00:58:35;6.67;;;5.97;;
11588;SDS011;5850;51.360;12.362;2023-07-09T01:01:06;6.27;;;5.67;;
11588;SDS011;5850;51.360;12.362;2023-07-09T01:03:40;6.67;;;5.70;;
11588;SDS011;5850;51.360;12.362;2023-07-09T01:06:13;6.50;;;5.90;;
11588;SDS011;5850;51.360;12.362;2023-07-09T01:08:47;9.40;;;5.83;;
11588;SDS011;5850;51.360;12.362;2023-07-09T01:11:20;6.37;;;5.23;;
11588;SDS011;5850;51.360;12.362;2023-07-09T01:13:49;5.53;;;5.03;;
11588;SDS011;5850;51.360;12.362;2023-07-09T01:16:22;7.07;;;6.33;;
11588;SDS011;5850;51.360;12.362;2023-07-09T01:18:55;8.37;;;5.90;;
11588;SDS011;5850;51.360;12.362;2023-07-09T01:21:23;5.90;;;5.30;;
11588;SDS011;5850;51.360;12.362;2023-07-09T01:23:53;6.93;;;5.53;;
11588;SDS011;5850;51.360;12.362;2023-07-09T01:26:25;7.77;;;5.67;;
11588;SDS011;5850;51.360;12.362;2023-07-09T01:28:54;5.83;;;5.23;;
11588;SDS011;5850;51.360;12.362;2023-07-09T01:31:24;5.93;;;5.33;;
11588;SDS011;5850;51.360;12.362;2023-07-09T01:33:52;6.00;;;5.50;;
11588;SDS011;5850;51.360;12.362;2023-07-09T01:36:20;6.63;;;5.77;;
11588;SDS011;5850;51.360;12.362;2023-07-09T01:38:50;5.50;;;5.00;;
11588;SDS011;5850;51.360;12.362;2023-07-09T01:41:20;7.40;;;5.63;;
11588;SDS011;5850;51.360;12.362;2023-07-09T01:43:49;5.70;;;5.00;;
11588;SDS011;5850;51.360;12.362;2023-07-09T01:46:17;6.00;;;5.40;;
11588;SDS011;5850;51.360;12.362;2023-07-09T01:48:45;6.00;;;5.40;;
11588;SDS011;5850;51.360;12.362;2023-07-09T01:51:15;5.93;;;5.20;;
11588;SDS011;5850;51.360;12.362;2023-07-09T01:53:44;7.43;;;5.33;;
11588;SDS011;5850;51.360;12.362;2023-07-09T01:56:12;6.17;;;5.00;;
11588;SDS011;5850;51.360;12.362;2023-07-09T01:58:41;6.30;;;5.33;;
11588;SDS011;5850;51.360;12.362;2023-07-09T02:01:09;6.17;;;5.30;;
11588;SDS011;5850;51.360;12.362;2023-07-09T02:03:37;10.47;;;5.93;;
11588;SDS011;5850;51.360;12.362;2023-07-09T02:06:06;8.13;;;6.00;;
11588;SDS011;5850;51.360;12.362;2023-07-09T02:08:35;6.40;;;5.33;;
11588;SDS011;5850;51.360;12.362;2023-07-09T02:11:04;6.73;;;5.90;;
11588;SDS011;5850;51.360;12.362;2023-07-09T02:13:32;5.87;;;5.37;;
11588;SDS011;5850;51.360;12.362;2023-07-09T02:16:00;7.27;;;5.70;;
11588;SDS011;5850;51.360;12.362;2023-07-09T02:18:30;7.03;;;5.43;;
11588;SDS011;5850;51.360;12.362;2023-07-09T02:20:58;5.73;;;5.20;;
11588;SDS011;5850;51.360;12.362;2023-07-09T02:23:27;5.63;;;5.10;;
11588;SDS011;5850;51.360;12.362;2023-07-09T02:25:55;6.87;;;5.57;;
11588;SDS011;5850;51.360;12.362;2023-07-09T02:28:23;6.87;;;6.17;;
11588;SDS011;5850;51.360;12.362;2023-07-09T02:30:52;7.27;;;6.57;;
11588;SDS011;5850;51.360;12.362;2023-07-09T02:33:22;6.87;;;6.27;;
11588;SDS011;5850;51.360;12.362;2023-07-09T02:35:50;9.37;;;6.43;;
11588;SDS011;5850;51.360;12.362;2023-07-09T02:38:19;6.33;;;5.73;;
11588;SDS011;5850;51.360;12.362;2023-07-09T02:40:47;6.67;;;5.97;;
11588;SDS011;5850;51.360;12.362;2023-07-09T02:43:15;6.80;;;5.63;;
11588;SDS011;5850;51.360;12.362;2023-07-09T02:45:44;8.67;;;5.87;;
11588;SDS011;5850;51.360;12.362;2023-07-09T02:48:12;6.70;;;6.00;;
11588;SDS011;5850;51.360;12.362;2023-07-09T02:50:40;6.67;;;5.97;;
11588;SDS011;5850;51.360;12.362;2023-07-09T02:53:09;7.07;;;5.73;;
11588;SDS011;5850;51.360;12.362;2023-07-09T02:55:37;8.37;;;6.13;;
11588;SDS011;5850;51.360;12.362;2023-07-09T02:58:05;7.23;;;6.43;;
11588;SDS011;5850;51.360;12.362;2023-07-09T03:00:36;7.43;;;5.93;;
11588;SDS011;5850;51.360;12.362;2023-07-09T03:03:04;8.47;;;6.10;;
11588;SDS011;5850;51.360;12.362;2023-07-09T03:05:33;7.27;;;5.97;;
11588;SDS011;5850;51.360;12.362;2023-07-09T03:08:01;7.47;;;6.13;;
11588;SDS011;5850;51.360;12.362;2023-07-09T03:10:30;8.23;;;6.37;;
11588;SDS011;5850;51.360;12.362;2023-07-09T03:12:58;7.10;;;5.83;;
11588;SDS011;5850;51.360;12.362;2023-07-09T03:15:28;8.00;;;6.10;;
11588;SDS011;5850;51.360;12.362;2023-07-09T03:17:57;6.40;;;5.80;;
11588;SDS011;5850;51.360;12.362;2023-07-09T03:20:25;10.00;;;5.90;;
11588;SDS011;5850;51.360;12.362;2023-07-09T03:22:54;6.77;;;6.00;;
11588;SDS011;5850;51.360;12.362;2023-07-09T03:25:22;7.13;;;6.23;;
11588;SDS011;5850;51.360;12.362;2023-07-09T03:27:50;8.03;;;6.73;;
11588;SDS011;5850;51.360;12.362;2023-07-09T03:30:19;8.47;;;6.50;;
11588;SDS011;5850;51.360;12.362;2023-07-09T03:32:47;10.00;;;6.83;;
11588;SDS011;5850;51.360;12.362;2023-07-09T03:35:18;10.60;;;6.40;;
11588;SDS011;5850;51.360;12.362;2023-07-09T03:37:46;6.90;;;6.20;;
11588;SDS011;5850;51.360;12.362;2023-07-09T03:40:20;7.07;;;6.30;;
11588;SDS011;5850;51.360;12.362;2023-07-09T03:42:51;6.83;;;6.13;;
11588;SDS011;5850;51.360;12.362;2023-07-09T03:45:19;7.43;;;6.37;;
11588;SDS011;5850;51.360;12.362;2023-07-09T03:47:47;8.00;;;6.50;;
11588;SDS011;5850;51.360;12.362;2023-07-09T03:50:23;9.33;;;7.70;;
11588;SDS011;5850;51.360;12.362;2023-07-09T03:52:52;8.10;;;6.33;;
11588;SDS011;5850;51.360;12.362;2023-07-09T03:55:23;8.47;;;7.13;;
11588;SDS011;5850;51.360;12.362;2023-07-09T03:57:53;8.90;;;6.90;;
11588;SDS011;5850;51.360;12.362;2023-07-09T04:00:22;9.70;;;6.70;;
11588;SDS011;5850;51.360;12.362;2023-07-09T04:02:51;6.87;;;6.17;;
11588;SDS011;5850;51.360;12.362;2023-07-09T04:05:21;8.57;;;7.40;;
11588;SDS011;5850;51.360;12.362;2023-07-09T04:07:50;8.50;;;6.23;;
11588;SDS011;5850;51.360;12.362;2023-07-09T04:10:18;7.47;;;6.57;;
11588;SDS011;5850;51.360;12.362;2023-07-09T04:12:47;7.77;;;6.73;;
11588;SDS011;5850;51.360;12.362;2023-07-09T04:15:15;7.37;;;6.67;;
11588;SDS011;5850;51.360;12.362;2023-07-09T04:17:43;9.30;;;7.13;;
11588;SDS011;5850;51.360;12.362;2023-07-09T04:20:11;6.30;;;5.70;;
11588;SDS011;5850;51.360;12.362;2023-07-09T04:22:40;7.67;;;6.33;;
11588;SDS011;5850;51.360;12.362;2023-07-09T04:25:10;8.00;;;6.80;;
11588;SDS011;5850;51.360;12.362;2023-07-09T04:27:40;7.83;;;6.33;;
11588;SDS011;5850;51.360;12.362;2023-07-09T04:30:13;7.33;;;6.53;;
11588;SDS011;5850;51.360;12.362;2023-07-09T04:32:42;9.00;;;6.67;;
11588;SDS011;5850;51.360;12.362;2023-07-09T04:35:11;7.63;;;6.80;;
11588;SDS011;5850;51.360;12.362;2023-07-09T04:37:41;8.17;;;7.07;;
11588;SDS011;5850;51.360;12.362;2023-07-09T04:40:09;6.93;;;6.23;;
11588;SDS011;5850;51.360;12.362;2023-07-09T04:42:38;10.93;;;6.80;;
11588;SDS011;5850;51.360;12.362;2023-07-09T04:45:07;6.83;;;6.03;;
11588;SDS011;5850;51.360;12.362;2023-07-09T04:47:37;6.67;;;5.97;;
11588;SDS011;5850;51.360;12.362;2023-07-09T04:50:06;8.10;;;6.40;;
11588;SDS011;5850;51.360;12.362;2023-07-09T04:52:35;7.97;;;6.20;;
11588;SDS011;5850;51.360;12.362;2023-07-09T04:55:03;8.27;;;6.27;;
11588;SDS011;5850;51.360;12.362;2023-07-09T04:57:33;9.43;;;6.93;;
11588;SDS011;5850;51.360;12.362;2023-07-09T05:00:02;9.83;;;7.13;;
11588;SDS011;5850;51.360;12.362;2023-07-09T05:02:31;11.20;;;6.63;;
11588;SDS011;5850;51.360;12.362;2023-07-09T05:05:00;6.57;;;5.93;;
11588;SDS011;5850;51.360;12.362;2023-07-09T05:07:28;8.00;;;6.13;;
11588;SDS011;5850;51.360;12.362;2023-07-09T05:09:59;8.23;;;6.57;;
11588;SDS011;5850;51.360;12.362;2023-07-09T05:12:34;7.70;;;6.20;;
11588;SDS011;5850;51.360;12.362;2023-07-09T05:15:02;6.90;;;6.20;;
11588;SDS011;5850;51.360;12.362;2023-07-09T05:17:31;7.10;;;6.40;;
11588;SDS011;5850;51.360;12.362;2023-07-09T05:20:02;6.40;;;5.80;;
11588;SDS011;5850;51.360;12.362;2023-07-09T05:22:33;6.23;;;5.63;;
11588;SDS011;5850;51.360;12.362;2023-07-09T05:25:03;8.13;;;6.30;;
11588;SDS011;5850;51.360;12.362;2023-07-09T05:27:34;6.67;;;5.87;;
11588;SDS011;5850;51.360;12.362;2023-07-09T05:30:06;6.63;;;5.80;;
11588;SDS011;5850;51.360;12.362;2023-07-09T05:32:37;8.63;;;6.53;;
11588;SDS011;5850;51.360;12.362;2023-07-09T05:35:12;6.27;;;5.67;;
11588;SDS011;5850;51.360;12.362;2023-07-09T05:37:40;6.90;;;5.73;;
11588;SDS011;5850;51.360;12.362;2023-07-09T05:40:08;5.70;;;5.20;;
11588;SDS011;5850;51.360;12.362;2023-07-09T05:42:36;7.27;;;5.63;;
11588;SDS011;5850;51.360;12.362;2023-07-09T05:45:11;6.70;;;5.73;;
11588;SDS011;5850;51.360;12.362;2023-07-09T05:47:42;7.00;;;6.10;;
11588;SDS011;5850;51.360;12.362;2023-07-09T05:50:10;7.53;;;5.47;;
11588;SDS011;5850;51.360;12.362;2023-07-09T05:52:38;6.27;;;5.43;;
11588;SDS011;5850;51.360;12.362;2023-07-09T05:55:07;8.43;;;6.30;;
11588;SDS011;5850;51.360;12.362;2023-07-09T05:57:38;7.27;;;6.13;;
11588;SDS011;5850;51.360;12.362;2023-07-09T06:00:17;6.87;;;6.17;;
11588;SDS011;5850;51.360;12.362;2023-07-09T06:02:47;7.23;;;6.27;;
11588;SDS011;5850;51.360;12.362;2023-07-09T06:05:18;7.57;;;6.03;;
11588;SDS011;5850;51.360;12.362;2023-07-09T06:07:46;7.20;;;5.87;;
11588;SDS011;5850;51.360;12.362;2023-07-09T06:10:15;6.47;;;5.60;;
11588;SDS011;5850;51.360;12.362;2023-07-09T06:12:46;8.33;;;6.10;;
11588;SDS011;5850;51.360;12.362;2023-07-09T06:15:15;6.47;;;5.87;;
11588;SDS011;5850;51.360;12.362;2023-07-09T06:17:45;9.30;;;5.70;;
11588;SDS011;5850;51.360;12.362;2023-07-09T06:20:17;7.07;;;5.57;;
11588;SDS011;5850;51.360;12.362;2023-07-09T06:22:45;6.20;;;5.60;;
11588;SDS011;5850;51.360;12.362;2023-07-09T06:25:14;7.67;;;5.70;;
11588;SDS011;5850;51.360;12.362;2023-07-09T06:27:43;8.07;;;6.10;;
11588;SDS011;5850;51.360;12.362;2023-07-09T06:30:11;9.47;;;6.67;;
11588;SDS011;5850;51.360;12.362;2023-07-09T06:32:40;9.63;;;5.53;;
11588;SDS011;5850;51.360;12.362;2023-07-09T06:35:09;6.53;;;5.93;;
11588;SDS011;5850;51.360;12.362;2023-07-09T06:37:42;8.73;;;6.40;;
11588;SDS011;5850;51.360;12.362;2023-07-09T06:40:11;6.60;;;5.77;;
11588;SDS011;5850;51.360;12.362;2023-07-09T06:42:39;6.53;;;5.90;;
11588;SDS011;5850;51.360;12.362;2023-07-09T06:45:09;6.57;;;5.67;;
11588;SDS011;5850;51.360;12.362;2023-07-09T06:50:33;7.30;;;5.95;;
11588;SDS011;5850;51.360;12.362;2023-07-09T06:53:04;7.88;;;6.15;;
11588;SDS011;5850;51.360;12.362;2023-07-09T06:55:33;5.75;;;5.15;;
11588;SDS011;5850;51.360;12.362;2023-07-09T06:58:00;8.85;;;6.20;;
11588;SDS011;5850;51.360;12.362;2023-07-09T07:00:29;6.85;;;5.45;;
11588;SDS011;5850;51.360;12.362;2023-07-09T07:02:59;6.93;;;5.93;;
11588;SDS011;5850;51.360;12.362;2023-07-09T07:05:27;5.72;;;5.22;;
11588;SDS011;5850;51.360;12.362;2023-07-09T07:07:57;6.82;;;5.95;;
11588;SDS011;5850;51.360;12.362;2023-07-09T07:10:31;6.38;;;5.78;;
11588;SDS011;5850;51.360;12.362;2023-07-09T07:12:59;10.05;;;5.90;;
11588;SDS011;5850;51.360;12.362;2023-07-09T07:15:27;6.30;;;5.22;;
11588;SDS011;5850;51.360;12.362;2023-07-09T07:17:58;7.72;;;5.95;;
11588;SDS011;5850;51.360;12.362;2023-07-09T07:20:30;6.32;;;4.55;;
11588;SDS011;5850;51.360;12.362;2023-07-09T07:23:01;6.40;;;5.80;;
11588;SDS011;5850;51.360;12.362;2023-07-09T07:25:29;9.32;;;4.70;;
11588;SDS011;5850;51.360;12.362;2023-07-09T07:28:01;7.28;;;5.50;;
11588;SDS011;5850;51.360;12.362;2023-07-09T07:30:34;7.70;;;5.53;;
11588;SDS011;5850;51.360;12.362;2023-07-09T07:33:03;9.63;;;5.32;;
11588;SDS011;5850;51.360;12.362;2023-07-09T07:35:34;6.10;;;5.05;;
11588;SDS011;5850;51.360;12.362;2023-07-09T07:38:23;6.97;;;5.63;;
11588;SDS011;5850;51.360;12.362;2023-07-09T07:40:51;6.20;;;5.53;;
11588;SDS011;5850;51.360;12.362;2023-07-09T07:43:20;7.97;;;5.60;;
11588;SDS011;5850;51.360;12.362;2023-07-09T07:45:48;6.95;;;5.03;;
11588;SDS011;5850;51.360;12.362;2023-07-09T07:48:22;6.60;;;5.38;;
11588;SDS011;5850;51.360;12.362;2023-07-09T07:50:58;7.57;;;5.70;;
11588;SDS011;5850;51.360;12.362;2023-07-09T07:53:30;5.78;;;5.18;;
11588;SDS011;5850;51.360;12.362;2023-07-09T07:55:59;5.97;;;5.20;;
11588;SDS011;5850;51.360;12.362;2023-07-09T07:58:31;7.53;;;5.53;;
11588;SDS011;5850;51.360;12.362;2023-07-09T08:00:59;6.63;;;5.45;;
11588;SDS011;5850;51.360;12.362;2023-07-09T08:03:29;7.05;;;5.05;;
11588;SDS011;5850;51.360;12.362;2023-07-09T08:05:57;5.60;;;4.90;;
11588;SDS011;5850;51.360;12.362;2023-07-09T08:08:28;6.07;;;5.15;;
11588;SDS011;5850;51.360;12.362;2023-07-09T08:11:03;6.35;;;5.28;;
11588;SDS011;5850;51.360;12.362;2023-07-09T08:13:34;6.45;;;4.72;;
11588;SDS011;5850;51.360;12.362;2023-07-09T08:16:03;5.10;;;4.70;;
11588;SDS011;5850;51.360;12.362;2023-07-09T08:18:32;5.70;;;5.18;;
11588;SDS011;5850;51.360;12.362;2023-07-09T08:21:01;6.85;;;5.50;;
11588;SDS011;5850;51.360;12.362;2023-07-09T08:23:29;4.90;;;4.43;;
11588;SDS011;5850;51.360;12.362;2023-07-09T08:26:01;5.38;;;4.88;;
11588;SDS011;5850;51.360;12.362;2023-07-09T08:28:30;6.13;;;4.95;;
11588;SDS011;5850;51.360;12.362;2023-07-09T08:30:59;7.03;;;4.85;;
11588;SDS011;5850;51.360;12.362;2023-07-09T08:33:28;4.82;;;4.32;;
11588;SDS011;5850;51.360;12.362;2023-07-09T08:35:57;5.30;;;4.80;;
11588;SDS011;5850;51.360;12.362;2023-07-09T08:38:25;5.95;;;5.03;;
11588;SDS011;5850;51.360;12.362;2023-07-09T08:41:18;5.22;;;4.72;;
11588;SDS011;5850;51.360;12.362;2023-07-09T08:44:10;5.63;;;5.00;;
11588;SDS011;5850;51.360;12.362;2023-07-09T08:47:06;10.10;;;5.03;;
11588;SDS011;5850;51.360;12.362;2023-07-09T08:50:09;5.97;;;4.72;;
11588;SDS011;5850;51.360;12.362;2023-07-09T08:52:44;5.00;;;4.50;;
11588;SDS011;5850;51.360;12.362;2023-07-09T08:55:16;7.53;;;5.00;;
11588;SDS011;5850;51.360;12.362;2023-07-09T08:57:48;6.15;;;4.75;;
11588;SDS011;5850;51.360;12.362;2023-07-09T09:00:33;6.82;;;4.72;;
11588;SDS011;5850;51.360;12.362;2023-07-09T09:05:58;5.15;;;4.65;;
11588;SDS011;5850;51.360;12.362;2023-07-09T09:08:38;5.60;;;5.10;;
11588;SDS011;5850;51.360;12.362;2023-07-09T09:11:20;5.38;;;4.88;;
11588;SDS011;5850;51.360;12.362;2023-07-09T09:13:59;4.97;;;4.55;;
11588;SDS011;5850;51.360;12.362;2023-07-09T09:16:35;5.25;;;4.75;;
11588;SDS011;5850;51.360;12.362;2023-07-09T09:19:13;5.43;;;4.90;;
11588;SDS011;5850;51.360;12.362;2023-07-09T09:21:57;5.68;;;5.05;;
11588;SDS011;5850;51.360;12.362;2023-07-09T09:24:35;5.75;;;4.90;;
11588;SDS011;5850;51.360;12.362;2023-07-09T09:27:18;5.80;;;4.25;;
11588;SDS011;5850;51.360;12.362;2023-07-09T09:29:46;5.35;;;4.72;;
11588;SDS011;5850;51.360;12.362;2023-07-09T09:32:59;5.45;;;4.95;;
11588;SDS011;5850;51.360;12.362;2023-07-09T09:35:13;6.68;;;4.70;;
11588;SDS011;5850;51.360;12.362;2023-07-09T09:37:50;5.38;;;4.95;;
11588;SDS011;5850;51.360;12.362;2023-07-09T09:40:21;6.57;;;4.82;;
11588;SDS011;5850;51.360;12.362;2023-07-09T09:42:51;5.35;;;4.85;;
11588;SDS011;5850;51.360;12.362;2023-07-09T09:45:35;5.85;;;5.25;;
11588;SDS011;5850;51.360;12.362;2023-07-09T09:48:13;5.75;;;5.25;;
11588;SDS011;5850;51.360;12.362;2023-07-09T09:51:03;4.65;;;4.25;;
11588;SDS011;5850;51.360;12.362;2023-07-09T09:53:39;7.38;;;5.07;;
11588;SDS011;5850;51.360;12.362;2023-07-09T09:56:18;7.05;;;4.53;;
11588;SDS011;5850;51.360;12.362;2023-07-09T09:58:55;4.80;;;4.40;;
11588;SDS011;5850;51.360;12.362;2023-07-09T10:01:29;5.22;;;4.55;;
11588;SDS011;5850;51.360;12.362;2023-07-09T10:04:02;7.57;;;5.00;;
11588;SDS011;5850;51.360;12.362;2023-07-09T10:06:41;6.65;;;4.65;;
11588;SDS011;5850;51.360;12.362;2023-07-09T10:17:44;5.55;;;4.50;;
11588;SDS011;5850;51.360;12.362;2023-07-09T10:23:22;6.30;;;4.53;;
11588;SDS011;5850;51.360;12.362;2023-07-09T10:26:13;4.82;;;4.40;;
11588;SDS011;5850;51.360;12.362;2023-07-09T10:31:50;4.75;;;4.30;;
11588;SDS011;5850;51.360;12.362;2023-07-09T10:40:32;6.35;;;5.57;;
11588;SDS011;5850;51.360;12.362;2023-07-09T10:43:10;4.95;;;4.32;;
11588;SDS011;5850;51.360;12.362;2023-07-09T10:45:56;4.57;;;4.13;;
11588;SDS011;5850;51.360;12.362;2023-07-09T10:50:57;4.60;;;4.20;;
11588;SDS011;5850;51.360;12.362;2023-07-09T10:53:29;8.68;;;4.45;;
11588;SDS011;5850;51.360;12.362;2023-07-09T10:56:11;5.13;;;4.13;;
11588;SDS011;5850;51.360;12.362;2023-07-09T10:59:04;5.00;;;4.10;;
11588;SDS011;5850;51.360;12.362;2023-07-09T11:01:57;7.10;;;4.65;;
11588;SDS011;5850;51.360;12.362;2023-07-09T11:04:44;6.43;;;4.68;;
11588;SDS011;5850;51.360;12.362;2023-07-09T11:07:18;4.88;;;4.38;;
11588;SDS011;5850;51.360;12.362;2023-07-09T11:10:19;5.90;;;4.38;;
11588;SDS011;5850;51.360;12.362;2023-07-09T11:13:20;5.22;;;4.53;;
11588;SDS011;5850;51.360;12.362;2023-07-09T11:16:20;5.28;;;4.78;;
11588;SDS011;5850;51.360;12.362;2023-07-09T11:18:59;7.18;;;5.07;;
11588;SDS011;5850;51.360;12.362;2023-07-09T11:21:31;4.80;;;4.40;;
11588;SDS011;5850;51.360;12.362;2023-07-09T11:24:03;5.07;;;4.57;;
11588;SDS011;5850;51.360;12.362;2023-07-09T11:26:33;4.70;;;4.30;;
11588;SDS011;5850;51.360;12.362;2023-07-09T11:31:34;5.97;;;5.38;;
11588;SDS011;5850;51.360;12.362;2023-07-09T11:36:34;5.05;;;4.65;;
11588;SDS011;5850;51.360;12.362;2023-07-09T11:39:17;6.03;;;4.20;;
11588;SDS011;5850;51.360;12.362;2023-07-09T11:41:49;8.00;;;4.90;;
11588;SDS011;5850;51.360;12.362;2023-07-09T11:44:28;6.10;;;4.63;;
11588;SDS011;5850;51.360;12.362;2023-07-09T11:50:06;5.45;;;4.28;;
11588;SDS011;5850;51.360;12.362;2023-07-09T11:52:56;6.15;;;5.03;;
11588;SDS011;5850;51.360;12.362;2023-07-09T11:55:31;5.97;;;4.82;;
11588;SDS011;5850;51.360;12.362;2023-07-09T11:58:13;5.18;;;4.18;;
11588;SDS011;5850;51.360;12.362;2023-07-09T12:00:48;5.22;;;4.72;;
11588;SDS011;5850;51.360;12.362;2023-07-09T12:03:26;6.80;;;5.07;;
11588;SDS011;5850;51.360;12.362;2023-07-09T12:08:49;10.20;;;6.35;;
11588;SDS011;5850;51.360;12.362;2023-07-09T12:11:19;7.30;;;5.57;;
11588;SDS011;5850;51.360;12.362;2023-07-09T12:14:00;10.88;;;9.75;;
11588;SDS011;5850;51.360;12.362;2023-07-09T12:16:35;7.07;;;6.43;;
11588;SDS011;5850;51.360;12.362;2023-07-09T12:19:06;6.13;;;5.32;;
11588;SDS011;5850;51.360;12.362;2023-07-09T12:21:39;6.47;;;4.80;;
11588;SDS011;5850;51.360;12.362;2023-07-09T12:24:15;5.03;;;4.40;;
11588;SDS011;5850;51.360;12.362;2023-07-09T12:26:51;6.78;;;4.95;;
11588;SDS011;5850;51.360;12.362;2023-07-09T12:29:23;5.68;;;4.88;;
11588;SDS011;5850;51.360;12.362;2023-07-09T12:31:53;6.20;;;4.68;;
11588;SDS011;5850;51.360;12.362;2023-07-09T12:34:24;6.93;;;4.53;;
11588;SDS011;5850;51.360;12.362;2023-07-09T12:36:54;5.50;;;4.88;;
11588;SDS011;5850;51.360;12.362;2023-07-09T12:39:27;5.05;;;4.35;;
11588;SDS011;5850;51.360;12.362;2023-07-09T12:41:59;5.32;;;4.75;;
11588;SDS011;5850;51.360;12.362;2023-07-09T12:44:30;4.90;;;4.40;;
11588;SDS011;5850;51.360;12.362;2023-07-09T12:47:02;6.20;;;5.07;;
11588;SDS011;5850;51.360;12.362;2023-07-09T12:49:36;6.43;;;4.60;;
11588;SDS011;5850;51.360;12.362;2023-07-09T12:52:18;6.35;;;4.82;;
11588;SDS011;5850;51.360;12.362;2023-07-09T12:54:57;6.10;;;5.07;;
11588;SDS011;5850;51.360;12.362;2023-07-09T12:57:30;6.53;;;4.70;;
11588;SDS011;5850;51.360;12.362;2023-07-09T12:59:59;5.70;;;5.13;;
11588;SDS011;5850;51.360;12.362;2023-07-09T13:02:37;5.63;;;4.55;;
11588;SDS011;5850;51.360;12.362;2023-07-09T13:05:06;8.27;;;5.07;;
11588;SDS011;5850;51.360;12.362;2023-07-09T13:07:49;9.30;;;5.00;;
11588;SDS011;5850;51.360;12.362;2023-07-09T13:10:24;5.90;;;4.95;;
11588;SDS011;5850;51.360;12.362;2023-07-09T13:12:57;6.28;;;4.78;;
11588;SDS011;5850;51.360;12.362;2023-07-09T13:18:11;8.05;;;4.68;;
11588;SDS011;5850;51.360;12.362;2023-07-09T13:20:42;5.65;;;4.82;;
11588;SDS011;5850;51.360;12.362;2023-07-09T13:23:17;6.97;;;5.20;;
11588;SDS011;5850;51.360;12.362;2023-07-09T13:25:54;5.68;;;5.07;;
11588;SDS011;5850;51.360;12.362;2023-07-09T13:28:29;5.80;;;5.20;;
11588;SDS011;5850;51.360;12.362;2023-07-09T13:31:13;5.80;;;5.10;;
11588;SDS011;5850;51.360;12.362;2023-07-09T13:33:44;7.97;;;5.70;;
11588;SDS011;5850;51.360;12.362;2023-07-09T13:36:21;8.13;;;4.90;;
11588;SDS011;5850;51.360;12.362;2023-07-09T13:38:49;6.68;;;4.43;;
11588;SDS011;5850;51.360;12.362;2023-07-09T13:41:18;5.82;;;5.13;;
11588;SDS011;5850;51.360;12.362;2023-07-09T13:43:48;6.78;;;5.43;;
11588;SDS011;5850;51.360;12.362;2023-07-09T13:46:17;5.85;;;5.25;;
11588;SDS011;5850;51.360;12.362;2023-07-09T13:48:45;9.15;;;5.20;;
11588;SDS011;5850;51.360;12.362;2023-07-09T13:51:15;6.25;;;5.45;;
11588;SDS011;5850;51.360;12.362;2023-07-09T13:53:50;6.45;;;4.88;;
11588;SDS011;5850;51.360;12.362;2023-07-09T13:56:21;7.03;;;5.40;;
11588;SDS011;5850;51.360;12.362;2023-07-09T13:58:49;7.07;;;5.05;;
11588;SDS011;5850;51.360;12.362;2023-07-09T14:01:21;6.82;;;5.03;;
11588;SDS011;5850;51.360;12.362;2023-07-09T14:03:52;5.75;;;4.90;;
11588;SDS011;5850;51.360;12.362;2023-07-09T14:06:24;8.30;;;6.10;;
11588;SDS011;5850;51.360;12.362;2023-07-09T14:08:53;6.32;;;4.80;;
11588;SDS011;5850;51.360;12.362;2023-07-09T14:11:21;7.47;;;4.85;;
11588;SDS011;5850;51.360;12.362;2023-07-09T14:13:49;7.05;;;5.20;;
11588;SDS011;5850;51.360;12.362;2023-07-09T14:16:18;5.90;;;4.70;;
11588;SDS011;5850;51.360;12.362;2023-07-09T14:18:47;6.18;;;5.18;;
11588;SDS011;5850;51.360;12.362;2023-07-09T14:21:17;6.78;;;5.00;;
11588;SDS011;5850;51.360;12.362;2023-07-09T14:23:51;5.53;;;4.43;;
11588;SDS011;5850;51.360;12.362;2023-07-09T14:26:19;7.97;;;4.95;;
11588;SDS011;5850;51.360;12.362;2023-07-09T14:28:48;5.15;;;4.65;;
11588;SDS011;5850;51.360;12.362;2023-07-09T14:31:18;6.53;;;4.95;;
11588;SDS011;5850;51.360;12.362;2023-07-09T14:33:52;6.68;;;5.07;;
11588;SDS011;5850;51.360;12.362;2023-07-09T14:36:20;6.32;;;5.55;;
11588;SDS011;5850;51.360;12.362;2023-07-09T14:38:48;5.93;;;4.72;;
11588;SDS011;5850;51.360;12.362;2023-07-09T14:41:23;5.75;;;4.68;;
11588;SDS011;5850;51.360;12.362;2023-07-09T14:43:54;7.32;;;5.15;;
11588;SDS011;5850;51.360;12.362;2023-07-09T14:46:26;5.32;;;4.72;;
11588;SDS011;5850;51.360;12.362;2023-07-09T14:48:54;6.57;;;5.18;;
11588;SDS011;5850;51.360;12.362;2023-07-09T14:51:22;5.50;;;4.72;;
11588;SDS011;5850;51.360;12.362;2023-07-09T14:53:50;5.07;;;4.63;;
11588;SDS011;5850;51.360;12.362;2023-07-09T14:56:19;5.13;;;4.63;;
11588;SDS011;5850;51.360;12.362;2023-07-09T14:58:47;6.40;;;4.47;;
11588;SDS011;5850;51.360;12.362;2023-07-09T15:01:15;8.88;;;4.63;;
11588;SDS011;5850;51.360;12.362;2023-07-09T15:03:44;5.13;;;4.63;;
11588;SDS011;5850;51.360;12.362;2023-07-09T15:06:12;5.53;;;4.90;;
11588;SDS011;5850;51.360;12.362;2023-07-09T15:08:40;7.55;;;4.82;;
11588;SDS011;5850;51.360;12.362;2023-07-09T15:11:08;7.57;;;6.03;;
11588;SDS011;5850;51.360;12.362;2023-07-09T15:13:37;7.32;;;5.25;;
11588;SDS011;5850;51.360;12.362;2023-07-09T15:16:06;6.72;;;4.97;;
11588;SDS011;5850;51.360;12.362;2023-07-09T15:18:35;6.00;;;5.05;;
11588;SDS011;5850;51.360;12.362;2023-07-09T15:21:04;7.55;;;5.13;;
11588;SDS011;5850;51.360;12.362;2023-07-09T15:23:36;7.28;;;5.13;;
11588;SDS011;5850;51.360;12.362;2023-07-09T15:26:14;7.18;;;5.45;;
11588;SDS011;5850;51.360;12.362;2023-07-09T15:28:42;8.52;;;5.07;;
11588;SDS011;5850;51.360;12.362;2023-07-09T15:31:13;6.57;;;4.93;;
11588;SDS011;5850;51.360;12.362;2023-07-09T15:33:42;7.07;;;5.88;;
11588;SDS011;5850;51.360;12.362;2023-07-09T15:36:11;6.07;;;4.97;;
11588;SDS011;5850;51.360;12.362;2023-07-09T15:38:39;6.28;;;5.25;;
11588;SDS011;5850;51.360;12.362;2023-07-09T15:41:12;5.07;;;4.60;;
11588;SDS011;5850;51.360;12.362;2023-07-09T15:43:42;5.40;;;4.90;;
11588;SDS011;5850;51.360;12.362;2023-07-09T15:46:15;5.18;;;4.35;;
11588;SDS011;5850;51.360;12.362;2023-07-09T15:48:46;6.40;;;4.75;;
11588;SDS011;5850;51.360;12.362;2023-07-09T15:51:15;6.05;;;4.78;;
11588;SDS011;5850;51.360;12.362;2023-07-09T15:53:44;5.88;;;4.95;;
11588;SDS011;5850;51.360;12.362;2023-07-09T15:56:23;5.47;;;4.88;;
11588;SDS011;5850;51.360;12.362;2023-07-09T15:58:56;5.70;;;5.10;;
11588;SDS011;5850;51.360;12.362;2023-07-09T16:01:25;5.78;;;4.90;;
11588;SDS011;5850;51.360;12.362;2023-07-09T16:03:58;8.25;;;6.25;;